sensor_id;sensor_type;location;lat;lon;timestamp;temperature;humidity
4647;DHT22;2336;47.822;7.564;2024-01-16T00:01:05;-3.50;99.90
4647;DHT22;2336;47.822;7.564;2024-01-16T00:03:33;-3.60;99.90
4647;DHT22;2336;47.822;7.564;2024-01-16T00:06:00;-3.70;99.90
4647;DHT22;2336;47.822;7.564;2024-01-16T00:08:28;-3.80;99.90
4647;DHT22;2336;47.822;7.564;2024-01-16T00:10:55;-3.80;99.90
4647;DHT22;2336;47.822;7.564;2024-01-16T00:13:22;-3.90;99.90
4647;DHT22;2336;47.822;7.564;2024-01-16T00:15:48;-3.90;99.90
4647;DHT22;2336;47.822;7.564;2024-01-16T00:18:16;-3.90;99.90
4647;DHT22;2336;47.822;7.564;2024-01-16T00:20:42;-3.90;99.90
4647;DHT22;2336;47.822;7.564;2024-01-16T00:23:09;-4.00;99.90
4647;DHT22;2336;47.822;7.564;2024-01-16T00:25:37;-4.10;99.90
4647;DHT22;2336;47.822;7.564;2024-01-16T00:28:05;-4.10;99.90
4647;DHT22;2336;47.822;7.564;2024-01-16T00:30:50;-4.10;99.90
4647;DHT22;2336;47.822;7.564;2024-01-16T00:33:17;-3.90;99.90
4647;DHT22;2336;47.822;7.564;2024-01-16T00:35:44;-4.00;99.90
4647;DHT22;2336;47.822;7.564;2024-01-16T00:38:11;-4.00;99.90
4647;DHT22;2336;47.822;7.564;2024-01-16T00:40:39;-4.00;99.90
4647;DHT22;2336;47.822;7.564;2024-01-16T00:43:06;-4.00;99.90
4647;DHT22;2336;47.822;7.564;2024-01-16T00:45:33;-3.80;99.90
4647;DHT22;2336;47.822;7.564;2024-01-16T00:48:00;-3.80;99.90
4647;DHT22;2336;47.822;7.564;2024-01-16T00:50:27;-3.80;99.90
4647;DHT22;2336;47.822;7.564;2024-01-16T00:52:55;-3.70;99.90
4647;DHT22;2336;47.822;7.564;2024-01-16T00:55:22;-3.70;99.90
4647;DHT22;2336;47.822;7.564;2024-01-16T00:57:51;-3.70;99.90
4647;DHT22;2336;47.822;7.564;2024-01-16T01:00:18;-3.80;99.90
4647;DHT22;2336;47.822;7.564;2024-01-16T01:02:45;-3.90;99.90
4647;DHT22;2336;47.822;7.564;2024-01-16T01:05:11;-3.90;99.90
4647;DHT22;2336;47.822;7.564;2024-01-16T01:07:38;-3.90;99.90
4647;DHT22;2336;47.822;7.564;2024-01-16T01:10:05;-3.70;99.90
4647;DHT22;2336;47.822;7.564;2024-01-16T01:12:32;-3.60;99.90
4647;DHT22;2336;47.822;7.564;2024-01-16T01:15:01;-3.60;99.90
4647;DHT22;2336;47.822;7.564;2024-01-16T01:17:28;-3.70;99.90
4647;DHT22;2336;47.822;7.564;2024-01-16T01:19:55;-3.90;99.90
4647;DHT22;2336;47.822;7.564;2024-01-16T01:22:21;-4.00;99.90
4647;DHT22;2336;47.822;7.564;2024-01-16T01:24:48;-4.00;99.90
4647;DHT22;2336;47.822;7.564;2024-01-16T01:27:15;-4.10;99.90
4647;DHT22;2336;47.822;7.564;2024-01-16T01:29:42;-4.20;99.90
4647;DHT22;2336;47.822;7.564;2024-01-16T01:32:10;-4.30;99.90
4647;DHT22;2336;47.822;7.564;2024-01-16T01:34:37;-4.30;99.90
4647;DHT22;2336;47.822;7.564;2024-01-16T01:37:04;-4.40;99.90
4647;DHT22;2336;47.822;7.564;2024-01-16T01:39:31;-4.40;99.90
4647;DHT22;2336;47.822;7.564;2024-01-16T01:41:58;-4.50;99.90
4647;DHT22;2336;47.822;7.564;2024-01-16T01:44:24;-4.30;99.90
4647;DHT22;2336;47.822;7.564;2024-01-16T01:46:54;-4.20;99.90
4647;DHT22;2336;47.822;7.564;2024-01-16T01:49:23;-4.00;99.90
4647;DHT22;2336;47.822;7.564;2024-01-16T01:51:50;-4.00;99.90
4647;DHT22;2336;47.822;7.564;2024-01-16T01:54:18;-4.00;99.90
4647;DHT22;2336;47.822;7.564;2024-01-16T01:56:47;-3.90;99.90
4647;DHT22;2336;47.822;7.564;2024-01-16T01:59:14;-3.80;99.90
4647;DHT22;2336;47.822;7.564;2024-01-16T02:01:44;-3.80;99.90
4647;DHT22;2336;47.822;7.564;2024-01-16T02:04:13;-3.70;99.90
4647;DHT22;2336;47.822;7.564;2024-01-16T02:06:42;-3.70;99.90
4647;DHT22;2336;47.822;7.564;2024-01-16T02:09:09;-3.70;99.90
4647;DHT22;2336;47.822;7.564;2024-01-16T02:11:38;-3.60;99.90
4647;DHT22;2336;47.822;7.564;2024-01-16T02:14:05;-3.50;99.90
4647;DHT22;2336;47.822;7.564;2024-01-16T02:16:36;-3.40;99.90
4647;DHT22;2336;47.822;7.564;2024-01-16T02:19:03;-3.40;99.90
4647;DHT22;2336;47.822;7.564;2024-01-16T02:21:36;-3.40;99.90
4647;DHT22;2336;47.822;7.564;2024-01-16T02:24:05;-3.40;99.90
4647;DHT22;2336;47.822;7.564;2024-01-16T02:26:33;-3.50;99.90
4647;DHT22;2336;47.822;7.564;2024-01-16T02:29:01;-3.60;99.90
4647;DHT22;2336;47.822;7.564;2024-01-16T02:31:27;-3.60;99.90
4647;DHT22;2336;47.822;7.564;2024-01-16T02:33:54;-3.60;99.90
4647;DHT22;2336;47.822;7.564;2024-01-16T02:36:21;-3.60;99.90
4647;DHT22;2336;47.822;7.564;2024-01-16T02:38:48;-3.70;99.90
4647;DHT22;2336;47.822;7.564;2024-01-16T02:41:16;-3.80;99.90
4647;DHT22;2336;47.822;7.564;2024-01-16T03:22:35;-4.80;99.90
4647;DHT22;2336;47.822;7.564;2024-01-16T03:25:01;-4.90;99.90
4647;DHT22;2336;47.822;7.564;2024-01-16T03:27:28;-4.90;99.90
4647;DHT22;2336;47.822;7.564;2024-01-16T03:29:55;-4.90;99.90
4647;DHT22;2336;47.822;7.564;2024-01-16T03:32:24;-4.90;99.90
4647;DHT22;2336;47.822;7.564;2024-01-16T03:34:51;-4.90;99.90
4647;DHT22;2336;47.822;7.564;2024-01-16T03:37:19;-5.00;99.90
4647;DHT22;2336;47.822;7.564;2024-01-16T03:39:47;-5.10;99.90
4647;DHT22;2336;47.822;7.564;2024-01-16T03:42:15;-5.20;99.90
4647;DHT22;2336;47.822;7.564;2024-01-16T03:44:42;-5.20;99.90
4647;DHT22;2336;47.822;7.564;2024-01-16T03:47:09;-5.10;99.90
4647;DHT22;2336;47.822;7.564;2024-01-16T03:49:36;-5.20;99.90
4647;DHT22;2336;47.822;7.564;2024-01-16T03:52:03;-5.20;99.90
4647;DHT22;2336;47.822;7.564;2024-01-16T03:54:30;-5.30;99.90
4647;DHT22;2336;47.822;7.564;2024-01-16T03:56:58;-5.30;99.90
4647;DHT22;2336;47.822;7.564;2024-01-16T03:59:25;-5.30;99.90
4647;DHT22;2336;47.822;7.564;2024-01-16T04:01:52;-5.20;99.90
4647;DHT22;2336;47.822;7.564;2024-01-16T04:04:19;-5.20;99.90
4647;DHT22;2336;47.822;7.564;2024-01-16T04:06:46;-5.20;99.90
4647;DHT22;2336;47.822;7.564;2024-01-16T04:09:13;-5.20;99.90
4647;DHT22;2336;47.822;7.564;2024-01-16T04:11:40;-5.30;99.90
4647;DHT22;2336;47.822;7.564;2024-01-16T04:14:08;-5.30;99.90
4647;DHT22;2336;47.822;7.564;2024-01-16T04:16:35;-5.30;99.90
4647;DHT22;2336;47.822;7.564;2024-01-16T04:19:01;-5.40;99.90
4647;DHT22;2336;47.822;7.564;2024-01-16T04:21:29;-5.30;99.90
4647;DHT22;2336;47.822;7.564;2024-01-16T04:23:55;-5.40;99.90
4647;DHT22;2336;47.822;7.564;2024-01-16T04:26:22;-5.50;99.90
4647;DHT22;2336;47.822;7.564;2024-01-16T04:28:50;-5.60;99.90
4647;DHT22;2336;47.822;7.564;2024-01-16T04:31:18;-5.70;99.90
4647;DHT22;2336;47.822;7.564;2024-01-16T04:33:47;-5.60;99.90
4647;DHT22;2336;47.822;7.564;2024-01-16T04:36:14;-5.60;99.90
4647;DHT22;2336;47.822;7.564;2024-01-16T04:38:41;-5.70;99.90
4647;DHT22;2336;47.822;7.564;2024-01-16T04:41:08;-5.70;99.90
4647;DHT22;2336;47.822;7.564;2024-01-16T04:43:35;-5.80;99.90
4647;DHT22;2336;47.822;7.564;2024-01-16T04:46:01;-5.90;99.90
4647;DHT22;2336;47.822;7.564;2024-01-16T04:48:29;-5.90;99.90
4647;DHT22;2336;47.822;7.564;2024-01-16T04:50:56;-5.80;99.90
4647;DHT22;2336;47.822;7.564;2024-01-16T04:53:23;-5.80;99.90
4647;DHT22;2336;47.822;7.564;2024-01-16T04:55:50;-5.80;99.90
4647;DHT22;2336;47.822;7.564;2024-01-16T04:58:16;-5.80;99.90
4647;DHT22;2336;47.822;7.564;2024-01-16T05:00:44;-5.80;99.90
4647;DHT22;2336;47.822;7.564;2024-01-16T05:03:10;-5.80;99.90
4647;DHT22;2336;47.822;7.564;2024-01-16T05:05:38;-5.70;99.90
4647;DHT22;2336;47.822;7.564;2024-01-16T05:08:05;-5.70;99.90
4647;DHT22;2336;47.822;7.564;2024-01-16T05:10:31;-5.70;99.90
4647;DHT22;2336;47.822;7.564;2024-01-16T05:12:58;-5.90;99.90
4647;DHT22;2336;47.822;7.564;2024-01-16T05:15:25;-5.90;99.90
4647;DHT22;2336;47.822;7.564;2024-01-16T05:17:52;-6.00;99.90
4647;DHT22;2336;47.822;7.564;2024-01-16T05:20:19;-6.10;99.90
4647;DHT22;2336;47.822;7.564;2024-01-16T05:22:48;-6.10;99.90
4647;DHT22;2336;47.822;7.564;2024-01-16T05:25:15;-6.10;99.90
4647;DHT22;2336;47.822;7.564;2024-01-16T05:27:43;-6.10;99.90
4647;DHT22;2336;47.822;7.564;2024-01-16T05:30:10;-6.10;99.90
4647;DHT22;2336;47.822;7.564;2024-01-16T05:32:37;-6.20;99.90
4647;DHT22;2336;47.822;7.564;2024-01-16T05:35:05;-6.20;99.90
4647;DHT22;2336;47.822;7.564;2024-01-16T05:37:32;-6.20;99.90
4647;DHT22;2336;47.822;7.564;2024-01-16T05:40:01;-6.20;99.90
4647;DHT22;2336;47.822;7.564;2024-01-16T05:42:29;-6.40;99.90
4647;DHT22;2336;47.822;7.564;2024-01-16T05:44:56;-6.50;99.90
4647;DHT22;2336;47.822;7.564;2024-01-16T05:47:23;-6.40;99.90
4647;DHT22;2336;47.822;7.564;2024-01-16T05:49:53;-6.50;99.90
4647;DHT22;2336;47.822;7.564;2024-01-16T05:52:20;-6.50;99.90
4647;DHT22;2336;47.822;7.564;2024-01-16T05:54:47;-6.50;99.90
4647;DHT22;2336;47.822;7.564;2024-01-16T05:57:15;-6.20;99.90
4647;DHT22;2336;47.822;7.564;2024-01-16T05:59:42;-6.20;99.90
4647;DHT22;2336;47.822;7.564;2024-01-16T06:02:08;-6.30;99.90
4647;DHT22;2336;47.822;7.564;2024-01-16T06:04:36;-6.40;99.90
4647;DHT22;2336;47.822;7.564;2024-01-16T06:07:03;-6.50;99.90
4647;DHT22;2336;47.822;7.564;2024-01-16T06:09:32;-6.50;99.90
4647;DHT22;2336;47.822;7.564;2024-01-16T06:11:59;-6.60;99.90
4647;DHT22;2336;47.822;7.564;2024-01-16T06:14:27;-6.60;99.90
4647;DHT22;2336;47.822;7.564;2024-01-16T06:16:54;-6.60;99.90
4647;DHT22;2336;47.822;7.564;2024-01-16T06:19:20;-6.70;99.90
4647;DHT22;2336;47.822;7.564;2024-01-16T06:21:47;-6.60;99.90
4647;DHT22;2336;47.822;7.564;2024-01-16T06:24:14;-6.60;99.90
4647;DHT22;2336;47.822;7.564;2024-01-16T06:26:41;-6.60;99.90
4647;DHT22;2336;47.822;7.564;2024-01-16T06:29:08;-6.60;99.90
4647;DHT22;2336;47.822;7.564;2024-01-16T06:31:36;-6.60;99.90
4647;DHT22;2336;47.822;7.564;2024-01-16T06:34:03;-6.60;99.90
4647;DHT22;2336;47.822;7.564;2024-01-16T06:36:30;-6.60;99.90
4647;DHT22;2336;47.822;7.564;2024-01-16T06:38:57;-6.60;99.90
4647;DHT22;2336;47.822;7.564;2024-01-16T06:41:24;-6.70;99.90
4647;DHT22;2336;47.822;7.564;2024-01-16T06:43:50;-6.70;99.90
4647;DHT22;2336;47.822;7.564;2024-01-16T06:46:17;-6.70;99.90
4647;DHT22;2336;47.822;7.564;2024-01-16T06:48:45;-6.70;99.90
4647;DHT22;2336;47.822;7.564;2024-01-16T06:51:13;-6.70;99.90
4647;DHT22;2336;47.822;7.564;2024-01-16T06:53:39;-6.70;99.90
4647;DHT22;2336;47.822;7.564;2024-01-16T06:56:06;-6.70;99.90
4647;DHT22;2336;47.822;7.564;2024-01-16T06:58:34;-6.70;99.90
4647;DHT22;2336;47.822;7.564;2024-01-16T07:01:01;-6.80;99.90
4647;DHT22;2336;47.822;7.564;2024-01-16T07:03:28;-6.70;99.90
4647;DHT22;2336;47.822;7.564;2024-01-16T07:05:56;-6.70;99.90
4647;DHT22;2336;47.822;7.564;2024-01-16T07:08:23;-6.70;99.90
4647;DHT22;2336;47.822;7.564;2024-01-16T07:10:49;-6.70;99.90
4647;DHT22;2336;47.822;7.564;2024-01-16T07:13:16;-6.80;99.90
4647;DHT22;2336;47.822;7.564;2024-01-16T07:15:43;-6.80;99.90
4647;DHT22;2336;47.822;7.564;2024-01-16T07:18:10;-6.80;99.90
4647;DHT22;2336;47.822;7.564;2024-01-16T07:20:37;-6.80;99.90
4647;DHT22;2336;47.822;7.564;2024-01-16T07:23:05;-6.80;99.90
4647;DHT22;2336;47.822;7.564;2024-01-16T07:25:32;-6.80;99.90
4647;DHT22;2336;47.822;7.564;2024-01-16T07:27:59;-6.80;99.90
4647;DHT22;2336;47.822;7.564;2024-01-16T07:30:26;-6.70;99.90
4647;DHT22;2336;47.822;7.564;2024-01-16T07:32:52;-6.70;99.90
4647;DHT22;2336;47.822;7.564;2024-01-16T07:35:19;-6.80;99.90
4647;DHT22;2336;47.822;7.564;2024-01-16T07:37:45;-6.80;99.90
4647;DHT22;2336;47.822;7.564;2024-01-16T07:40:13;-6.80;99.90
4647;DHT22;2336;47.822;7.564;2024-01-16T07:42:42;-6.80;99.90
4647;DHT22;2336;47.822;7.564;2024-01-16T07:45:09;-6.80;99.90
4647;DHT22;2336;47.822;7.564;2024-01-16T07:47:36;-6.70;99.90
4647;DHT22;2336;47.822;7.564;2024-01-16T07:50:03;-6.70;99.90
4647;DHT22;2336;47.822;7.564;2024-01-16T07:52:30;-6.60;99.90
4647;DHT22;2336;47.822;7.564;2024-01-16T07:54:57;-6.60;99.90
4647;DHT22;2336;47.822;7.564;2024-01-16T07:57:25;-6.60;99.90
4647;DHT22;2336;47.822;7.564;2024-01-16T07:59:52;-6.50;99.90
4647;DHT22;2336;47.822;7.564;2024-01-16T08:02:18;-6.50;99.90
4647;DHT22;2336;47.822;7.564;2024-01-16T08:04:45;-6.50;99.90
4647;DHT22;2336;47.822;7.564;2024-01-16T08:07:12;-6.50;99.90
4647;DHT22;2336;47.822;7.564;2024-01-16T08:09:39;-6.40;99.90
4647;DHT22;2336;47.822;7.564;2024-01-16T08:12:06;-6.30;99.90
4647;DHT22;2336;47.822;7.564;2024-01-16T08:14:34;-6.20;99.90
4647;DHT22;2336;47.822;7.564;2024-01-16T08:17:00;-6.20;99.90
4647;DHT22;2336;47.822;7.564;2024-01-16T08:19:27;-6.10;99.90
4647;DHT22;2336;47.822;7.564;2024-01-16T08:21:54;-6.00;99.90
4647;DHT22;2336;47.822;7.564;2024-01-16T08:24:21;-6.00;99.90
4647;DHT22;2336;47.822;7.564;2024-01-16T08:26:48;-5.90;99.90
4647;DHT22;2336;47.822;7.564;2024-01-16T08:29:15;-5.80;99.90
4647;DHT22;2336;47.822;7.564;2024-01-16T08:31:43;-5.80;99.90
4647;DHT22;2336;47.822;7.564;2024-01-16T08:34:10;-5.70;99.90
4647;DHT22;2336;47.822;7.564;2024-01-16T08:36:36;-5.70;99.90
4647;DHT22;2336;47.822;7.564;2024-01-16T08:39:03;-5.60;99.90
4647;DHT22;2336;47.822;7.564;2024-01-16T08:41:31;-5.60;99.90
4647;DHT22;2336;47.822;7.564;2024-01-16T08:43:58;-5.40;99.90
4647;DHT22;2336;47.822;7.564;2024-01-16T08:46:24;-5.30;99.90
4647;DHT22;2336;47.822;7.564;2024-01-16T08:49:01;-5.20;99.90
4647;DHT22;2336;47.822;7.564;2024-01-16T08:51:33;-5.10;99.90
4647;DHT22;2336;47.822;7.564;2024-01-16T08:54:03;-5.00;99.90
4647;DHT22;2336;47.822;7.564;2024-01-16T08:56:33;-4.90;99.90
4647;DHT22;2336;47.822;7.564;2024-01-16T08:59:06;-4.90;99.90
4647;DHT22;2336;47.822;7.564;2024-01-16T09:01:37;-4.80;99.90
4647;DHT22;2336;47.822;7.564;2024-01-16T09:04:06;-4.70;99.90
4647;DHT22;2336;47.822;7.564;2024-01-16T09:06:34;-4.70;99.90
4647;DHT22;2336;47.822;7.564;2024-01-16T09:09:03;-4.60;99.90
4647;DHT22;2336;47.822;7.564;2024-01-16T09:11:44;-4.50;99.90
4647;DHT22;2336;47.822;7.564;2024-01-16T09:14:18;-4.50;99.90
4647;DHT22;2336;47.822;7.564;2024-01-16T09:16:58;-4.40;99.90
4647;DHT22;2336;47.822;7.564;2024-01-16T09:19:31;-4.30;99.90
4647;DHT22;2336;47.822;7.564;2024-01-16T09:22:02;-4.20;99.90
4647;DHT22;2336;47.822;7.564;2024-01-16T09:24:33;-4.20;99.90
4647;DHT22;2336;47.822;7.564;2024-01-16T09:27:01;-4.10;99.90
4647;DHT22;2336;47.822;7.564;2024-01-16T09:29:32;-4.00;99.90
4647;DHT22;2336;47.822;7.564;2024-01-16T09:31:58;-4.00;99.90
4647;DHT22;2336;47.822;7.564;2024-01-16T09:34:34;-4.00;99.90
4647;DHT22;2336;47.822;7.564;2024-01-16T09:37:04;-3.90;99.90
4647;DHT22;2336;47.822;7.564;2024-01-16T09:39:47;-3.80;99.90
4647;DHT22;2336;47.822;7.564;2024-01-16T09:42:18;-3.80;99.90
4647;DHT22;2336;47.822;7.564;2024-01-16T09:44:49;-3.70;99.90
4647;DHT22;2336;47.822;7.564;2024-01-16T09:47:25;-3.60;99.90
4647;DHT22;2336;47.822;7.564;2024-01-16T09:49:55;-3.60;99.90
4647;DHT22;2336;47.822;7.564;2024-01-16T09:52:41;-3.50;99.90
4647;DHT22;2336;47.822;7.564;2024-01-16T09:55:11;-3.40;99.90
4647;DHT22;2336;47.822;7.564;2024-01-16T09:57:56;-3.30;99.90
4647;DHT22;2336;47.822;7.564;2024-01-16T10:00:34;-3.10;99.90
4647;DHT22;2336;47.822;7.564;2024-01-16T10:03:07;-3.00;99.90
4647;DHT22;2336;47.822;7.564;2024-01-16T10:05:39;-2.90;99.90
4647;DHT22;2336;47.822;7.564;2024-01-16T10:08:10;-2.90;99.90
4647;DHT22;2336;47.822;7.564;2024-01-16T10:10:39;-2.80;99.90
4647;DHT22;2336;47.822;7.564;2024-01-16T10:13:08;-2.60;99.90
4647;DHT22;2336;47.822;7.564;2024-01-16T10:15:38;-2.50;99.90
4647;DHT22;2336;47.822;7.564;2024-01-16T10:18:22;-2.40;99.90
4647;DHT22;2336;47.822;7.564;2024-01-16T10:20:53;-2.20;99.90
4647;DHT22;2336;47.822;7.564;2024-01-16T10:23:24;-1.90;99.90
4647;DHT22;2336;47.822;7.564;2024-01-16T10:26:11;-1.70;99.90
4647;DHT22;2336;47.822;7.564;2024-01-16T10:28:45;-1.70;99.90
4647;DHT22;2336;47.822;7.564;2024-01-16T10:31:16;-1.60;99.90
4647;DHT22;2336;47.822;7.564;2024-01-16T10:33:45;-1.60;99.90
4647;DHT22;2336;47.822;7.564;2024-01-16T10:36:29;-1.70;99.90
4647;DHT22;2336;47.822;7.564;2024-01-16T10:39:04;-1.80;99.90
4647;DHT22;2336;47.822;7.564;2024-01-16T10:41:34;-1.80;99.90
4647;DHT22;2336;47.822;7.564;2024-01-16T10:44:04;-1.90;99.90
4647;DHT22;2336;47.822;7.564;2024-01-16T10:46:48;-1.90;99.90
4647;DHT22;2336;47.822;7.564;2024-01-16T10:49:17;-1.90;99.90
4647;DHT22;2336;47.822;7.564;2024-01-16T10:51:51;-1.80;99.90
4647;DHT22;2336;47.822;7.564;2024-01-16T10:54:22;-1.80;99.90
4647;DHT22;2336;47.822;7.564;2024-01-16T10:57:06;-1.80;99.90
4647;DHT22;2336;47.822;7.564;2024-01-16T10:59:42;-1.80;99.90
4647;DHT22;2336;47.822;7.564;2024-01-16T11:02:23;-1.70;99.90
4647;DHT22;2336;47.822;7.564;2024-01-16T11:05:13;-1.60;99.90
4647;DHT22;2336;47.822;7.564;2024-01-16T11:07:44;-1.60;99.90
4647;DHT22;2336;47.822;7.564;2024-01-16T11:10:13;-1.70;99.90
4647;DHT22;2336;47.822;7.564;2024-01-16T11:12:42;-1.70;99.90
4647;DHT22;2336;47.822;7.564;2024-01-16T11:15:13;-1.70;99.90
4647;DHT22;2336;47.822;7.564;2024-01-16T11:17:45;-1.70;99.90
4647;DHT22;2336;47.822;7.564;2024-01-16T11:20:18;-1.40;99.90
4647;DHT22;2336;47.822;7.564;2024-01-16T11:22:55;-1.30;99.90
4647;DHT22;2336;47.822;7.564;2024-01-16T11:25:32;-1.20;99.90
4647;DHT22;2336;47.822;7.564;2024-01-16T11:28:21;-1.20;99.90
4647;DHT22;2336;47.822;7.564;2024-01-16T11:30:55;-1.40;99.90
4647;DHT22;2336;47.822;7.564;2024-01-16T11:33:42;-1.30;99.90
4647;DHT22;2336;47.822;7.564;2024-01-16T11:39:32;-0.90;99.90
4647;DHT22;2336;47.822;7.564;2024-01-16T11:42:06;-1.00;99.90
4647;DHT22;2336;47.822;7.564;2024-01-16T11:44:41;-1.10;99.90
4647;DHT22;2336;47.822;7.564;2024-01-16T11:47:18;-1.10;99.90
4647;DHT22;2336;47.822;7.564;2024-01-16T11:49:51;-1.00;99.90
4647;DHT22;2336;47.822;7.564;2024-01-16T11:52:40;-0.70;99.90
4647;DHT22;2336;47.822;7.564;2024-01-16T11:55:31;-0.90;99.90
4647;DHT22;2336;47.822;7.564;2024-01-16T11:58:25;-1.10;99.90
4647;DHT22;2336;47.822;7.564;2024-01-16T12:01:13;-1.20;99.90
4647;DHT22;2336;47.822;7.564;2024-01-16T12:04:03;-1.30;99.90
4647;DHT22;2336;47.822;7.564;2024-01-16T12:06:43;-1.20;99.90
4647;DHT22;2336;47.822;7.564;2024-01-16T12:09:17;-0.60;99.90
4647;DHT22;2336;47.822;7.564;2024-01-16T12:14:59;0.70;99.90
4647;DHT22;2336;47.822;7.564;2024-01-16T12:17:27;0.80;99.90
4647;DHT22;2336;47.822;7.564;2024-01-16T12:19:55;0.70;99.90
4647;DHT22;2336;47.822;7.564;2024-01-16T12:22:23;0.90;99.90
4647;DHT22;2336;47.822;7.564;2024-01-16T12:24:56;0.90;99.90
4647;DHT22;2336;47.822;7.564;2024-01-16T12:27:33;0.90;99.90
4647;DHT22;2336;47.822;7.564;2024-01-16T12:30:15;1.20;99.90
4647;DHT22;2336;47.822;7.564;2024-01-16T12:33:05;1.50;99.90
4647;DHT22;2336;47.822;7.564;2024-01-16T12:36:05;2.30;99.90
4647;DHT22;2336;47.822;7.564;2024-01-16T12:38:36;3.00;99.90
4647;DHT22;2336;47.822;7.564;2024-01-16T12:41:10;3.30;99.90
4647;DHT22;2336;47.822;7.564;2024-01-16T12:43:49;3.20;99.90
4647;DHT22;2336;47.822;7.564;2024-01-16T12:46:27;3.20;99.90
4647;DHT22;2336;47.822;7.564;2024-01-16T12:49:03;2.90;99.90
4647;DHT22;2336;47.822;7.564;2024-01-16T12:51:33;2.40;99.90
4647;DHT22;2336;47.822;7.564;2024-01-16T12:54:12;2.30;99.90
4647;DHT22;2336;47.822;7.564;2024-01-16T12:56:42;2.00;99.90
4647;DHT22;2336;47.822;7.564;2024-01-16T12:59:18;1.90;99.90
4647;DHT22;2336;47.822;7.564;2024-01-16T13:01:47;1.80;99.90
4647;DHT22;2336;47.822;7.564;2024-01-16T13:04:17;1.60;99.90
4647;DHT22;2336;47.822;7.564;2024-01-16T13:06:50;1.60;99.90
4647;DHT22;2336;47.822;7.564;2024-01-16T13:09:17;1.60;99.90
4647;DHT22;2336;47.822;7.564;2024-01-16T13:11:46;1.70;99.90
4647;DHT22;2336;47.822;7.564;2024-01-16T13:14:13;1.50;99.90
4647;DHT22;2336;47.822;7.564;2024-01-16T13:16:40;1.00;99.90
4647;DHT22;2336;47.822;7.564;2024-01-16T13:19:08;0.70;99.90
4647;DHT22;2336;47.822;7.564;2024-01-16T13:21:36;0.70;99.90
4647;DHT22;2336;47.822;7.564;2024-01-16T13:24:03;0.60;99.90
4647;DHT22;2336;47.822;7.564;2024-01-16T13:26:39;0.50;99.90
4647;DHT22;2336;47.822;7.564;2024-01-16T13:29:07;0.60;99.90
4647;DHT22;2336;47.822;7.564;2024-01-16T13:31:34;0.50;99.90
4647;DHT22;2336;47.822;7.564;2024-01-16T13:34:01;0.50;99.90
4647;DHT22;2336;47.822;7.564;2024-01-16T13:36:29;0.40;99.90
4647;DHT22;2336;47.822;7.564;2024-01-16T13:38:56;0.60;99.90
4647;DHT22;2336;47.822;7.564;2024-01-16T13:41:23;0.70;99.90
4647;DHT22;2336;47.822;7.564;2024-01-16T13:43:50;0.80;99.90
4647;DHT22;2336;47.822;7.564;2024-01-16T13:46:17;0.80;99.90
4647;DHT22;2336;47.822;7.564;2024-01-16T13:48:44;0.90;99.90
4647;DHT22;2336;47.822;7.564;2024-01-16T13:51:11;0.80;99.90
4647;DHT22;2336;47.822;7.564;2024-01-16T13:53:39;0.80;99.90
4647;DHT22;2336;47.822;7.564;2024-01-16T13:56:06;0.80;99.90
4647;DHT22;2336;47.822;7.564;2024-01-16T13:58:33;1.00;99.90
4647;DHT22;2336;47.822;7.564;2024-01-16T14:01:00;1.10;99.90
4647;DHT22;2336;47.822;7.564;2024-01-16T14:03:27;1.30;99.90
4647;DHT22;2336;47.822;7.564;2024-01-16T14:05:54;1.40;99.90
4647;DHT22;2336;47.822;7.564;2024-01-16T14:08:21;1.30;99.90
4647;DHT22;2336;47.822;7.564;2024-01-16T14:10:49;1.50;99.90
4647;DHT22;2336;47.822;7.564;2024-01-16T14:13:16;1.60;99.90
4647;DHT22;2336;47.822;7.564;2024-01-16T14:15:43;1.80;99.90
4647;DHT22;2336;47.822;7.564;2024-01-16T14:18:10;1.90;99.90
4647;DHT22;2336;47.822;7.564;2024-01-16T14:20:37;1.90;99.90
4647;DHT22;2336;47.822;7.564;2024-01-16T14:23:04;2.10;99.90
4647;DHT22;2336;47.822;7.564;2024-01-16T14:25:31;2.20;99.90
4647;DHT22;2336;47.822;7.564;2024-01-16T14:28:01;2.00;99.90
4647;DHT22;2336;47.822;7.564;2024-01-16T14:30:28;1.90;99.90
4647;DHT22;2336;47.822;7.564;2024-01-16T14:32:55;1.80;99.90
4647;DHT22;2336;47.822;7.564;2024-01-16T14:35:22;2.00;99.90
4647;DHT22;2336;47.822;7.564;2024-01-16T14:37:50;1.90;99.90
4647;DHT22;2336;47.822;7.564;2024-01-16T14:40:17;1.60;99.90
4647;DHT22;2336;47.822;7.564;2024-01-16T14:42:46;1.50;99.90
4647;DHT22;2336;47.822;7.564;2024-01-16T14:45:15;1.60;99.90
4647;DHT22;2336;47.822;7.564;2024-01-16T14:47:42;1.50;99.90
4647;DHT22;2336;47.822;7.564;2024-01-16T14:50:10;1.70;99.90
4647;DHT22;2336;47.822;7.564;2024-01-16T14:52:38;1.70;99.90
4647;DHT22;2336;47.822;7.564;2024-01-16T14:55:06;1.70;99.90
4647;DHT22;2336;47.822;7.564;2024-01-16T14:57:33;1.70;99.90
4647;DHT22;2336;47.822;7.564;2024-01-16T15:00:07;1.50;99.90
4647;DHT22;2336;47.822;7.564;2024-01-16T15:02:41;1.20;99.90
4647;DHT22;2336;47.822;7.564;2024-01-16T15:05:09;1.10;99.90
4647;DHT22;2336;47.822;7.564;2024-01-16T15:07:38;1.00;99.90
4647;DHT22;2336;47.822;7.564;2024-01-16T15:10:06;0.80;99.90
4647;DHT22;2336;47.822;7.564;2024-01-16T15:12:35;0.70;99.90
4647;DHT22;2336;47.822;7.564;2024-01-16T15:15:01;0.50;99.90
4647;DHT22;2336;47.822;7.564;2024-01-16T15:17:29;0.50;99.90
4647;DHT22;2336;47.822;7.564;2024-01-16T15:19:57;0.30;99.90
4647;DHT22;2336;47.822;7.564;2024-01-16T15:22:24;0.30;99.90
4647;DHT22;2336;47.822;7.564;2024-01-16T15:24:51;0.20;99.90
4647;DHT22;2336;47.822;7.564;2024-01-16T15:27:17;0.20;99.90
4647;DHT22;2336;47.822;7.564;2024-01-16T15:29:45;0.10;99.90
4647;DHT22;2336;47.822;7.564;2024-01-16T15:32:12;0.00;99.90
4647;DHT22;2336;47.822;7.564;2024-01-16T15:34:39;0.00;99.90
4647;DHT22;2336;47.822;7.564;2024-01-16T15:37:07;-0.10;99.90
4647;DHT22;2336;47.822;7.564;2024-01-16T15:39:34;-0.20;99.90
4647;DHT22;2336;47.822;7.564;2024-01-16T15:42:01;-0.30;99.90
4647;DHT22;2336;47.822;7.564;2024-01-16T15:44:28;-0.50;99.90
4647;DHT22;2336;47.822;7.564;2024-01-16T15:46:59;-0.60;99.90
4647;DHT22;2336;47.822;7.564;2024-01-16T15:49:27;-0.70;99.90
4647;DHT22;2336;47.822;7.564;2024-01-16T15:51:54;-0.80;99.90
4647;DHT22;2336;47.822;7.564;2024-01-16T15:54:23;-0.90;99.90
4647;DHT22;2336;47.822;7.564;2024-01-16T15:56:50;-0.90;99.90
4647;DHT22;2336;47.822;7.564;2024-01-16T15:59:17;-1.00;99.90
4647;DHT22;2336;47.822;7.564;2024-01-16T16:01:43;-1.10;99.90
4647;DHT22;2336;47.822;7.564;2024-01-16T16:04:10;-1.20;99.90
4647;DHT22;2336;47.822;7.564;2024-01-16T16:06:38;-1.20;99.90
4647;DHT22;2336;47.822;7.564;2024-01-16T16:09:05;-1.30;99.90
4647;DHT22;2336;47.822;7.564;2024-01-16T16:11:35;-1.40;99.90
4647;DHT22;2336;47.822;7.564;2024-01-16T16:14:04;-1.50;99.90
4647;DHT22;2336;47.822;7.564;2024-01-16T16:16:31;-1.60;99.90
4647;DHT22;2336;47.822;7.564;2024-01-16T16:18:58;-1.70;99.90
4647;DHT22;2336;47.822;7.564;2024-01-16T16:21:26;-1.80;99.90
4647;DHT22;2336;47.822;7.564;2024-01-16T16:23:52;-1.90;99.90
4647;DHT22;2336;47.822;7.564;2024-01-16T16:26:31;-1.90;99.90
4647;DHT22;2336;47.822;7.564;2024-01-16T16:29:00;-2.00;99.90
4647;DHT22;2336;47.822;7.564;2024-01-16T16:31:28;-2.00;99.90
4647;DHT22;2336;47.822;7.564;2024-01-16T16:33:57;-2.10;99.90
4647;DHT22;2336;47.822;7.564;2024-01-16T16:36:24;-2.10;99.90
4647;DHT22;2336;47.822;7.564;2024-01-16T16:38:50;-2.20;99.90
4647;DHT22;2336;47.822;7.564;2024-01-16T16:41:17;-2.20;99.90
4647;DHT22;2336;47.822;7.564;2024-01-16T16:43:46;-2.30;99.90
4647;DHT22;2336;47.822;7.564;2024-01-16T16:46:15;-2.30;99.90
4647;DHT22;2336;47.822;7.564;2024-01-16T16:48:42;-2.30;99.90
4647;DHT22;2336;47.822;7.564;2024-01-16T16:51:11;-2.40;99.90
4647;DHT22;2336;47.822;7.564;2024-01-16T16:53:38;-2.50;99.90
4647;DHT22;2336;47.822;7.564;2024-01-16T16:56:07;-2.60;99.90
4647;DHT22;2336;47.822;7.564;2024-01-16T16:58:39;-2.60;99.90
4647;DHT22;2336;47.822;7.564;2024-01-16T17:01:07;-2.70;99.90
4647;DHT22;2336;47.822;7.564;2024-01-16T17:03:35;-2.70;99.90